BCS42A LIMC-LHBP
Flight info
| Callsign | BCS42A |
|---|---|
| Flight time | 1h 10m |
| Altitude | 35000 |
| Route | SRN6LXOSKOR6S/35R OSKOR DCT NESTI DCT MALUG DCT GOTAR DCT SIRDU DCT OGVUN DCT VAJDI |
| Aircraft | A306/H-SDE3FGHIRWY/LB1 |
Departure
| Time | 2026-05-05 22:04 |
|---|---|
| Airport | Milan Malpensa International Airport (LIMC) |
Arrival
| Time | 2026-05-05 23:15 |
|---|---|
| Airport | Budapest Liszt Ferenc International Airport (LHBP) |
| Time | Latitude | Longitude | Altitude | Speed | Heading |
|---|---|---|---|---|---|
| 2026-05-05 21:31 | 45.61423 | 8.72010 | 766 ft | 0 kts | 259° |
| 2026-05-05 21:52 | 45.61427 | 8.72035 | 766 ft | 4 kts | 253° |
| 2026-05-05 21:53 | 45.61435 | 8.72071 | 766 ft | 4 kts | 243° |
| 2026-05-05 21:53 | 45.61449 | 8.72104 | 766 ft | 4 kts | 230° |
| 2026-05-05 21:53 | 45.61468 | 8.72130 | 766 ft | 4 kts | 212° |
| 2026-05-05 21:53 | 45.61492 | 8.72146 | 766 ft | 4 kts | 190° |
| 2026-05-05 21:54 | 45.61516 | 8.72148 | 766 ft | 2 kts | 169° |
| 2026-05-05 21:54 | 45.61518 | 8.72147 | 766 ft | 1 kts | 169° |
| 2026-05-05 21:57 | 45.61509 | 8.72150 | 766 ft | 4 kts | 171° |
| 2026-05-05 21:57 | 45.61454 | 8.72162 | 766 ft | 12 kts | 171° |
| 2026-05-05 21:57 | 45.61350 | 8.72190 | 766 ft | 18 kts | 169° |
| 2026-05-05 21:57 | 45.61220 | 8.72226 | 766 ft | 19 kts | 169° |
| 2026-05-05 21:58 | 45.61095 | 8.72261 | 766 ft | 18 kts | 169° |
| 2026-05-05 21:58 | 45.60969 | 8.72297 | 766 ft | 18 kts | 169° |
| 2026-05-05 21:58 | 45.60846 | 8.72331 | 766 ft | 18 kts | 169° |
| 2026-05-05 21:58 | 45.60727 | 8.72368 | 766 ft | 17 kts | 159° |
| 2026-05-05 21:59 | 45.60659 | 8.72461 | 766 ft | 12 kts | 120° |
| 2026-05-05 21:59 | 45.60638 | 8.72559 | 766 ft | 10 kts | 103° |
| 2026-05-05 21:59 | 45.60630 | 8.72654 | 766 ft | 11 kts | 95° |
| 2026-05-05 21:59 | 45.60619 | 8.72804 | 766 ft | 19 kts | 95° |
| 2026-05-05 22:00 | 45.60604 | 8.73034 | 766 ft | 27 kts | 96° |
| 2026-05-05 22:00 | 45.60639 | 8.73294 | 766 ft | 29 kts | 33° |
| 2026-05-05 22:00 | 45.60838 | 8.73404 | 766 ft | 32 kts | 12° |
| 2026-05-05 22:00 | 45.61059 | 8.73341 | 766 ft | 34 kts | 342° |
| 2026-05-05 22:01 | 45.61298 | 8.73238 | 766 ft | 35 kts | 359° |
| 2026-05-05 22:01 | 45.61480 | 8.73239 | 766 ft | 27 kts | 352° |
| 2026-05-05 22:01 | 45.61639 | 8.73279 | 766 ft | 19 kts | 71° |
| 2026-05-05 22:01 | 45.61622 | 8.73458 | 766 ft | 16 kts | 112° |
| 2026-05-05 22:02 | 45.61590 | 8.73587 | 766 ft | 0 kts | 92° |
| 2026-05-05 22:03 | 45.61591 | 8.73634 | 765 ft | 10 kts | 88° |
| 2026-05-05 22:03 | 45.61628 | 8.73737 | 765 ft | 10 kts | 23° |
| 2026-05-05 22:03 | 45.61729 | 8.73706 | 763 ft | 33 kts | 346° |
| 2026-05-05 22:03 | 45.62210 | 8.73577 | 766 ft | 106 kts | 349° |
| 2026-05-05 22:04 | 45.63161 | 8.73310 | 762 ft | 174 kts | 349° |
| 2026-05-05 22:04 | 45.64543 | 8.72927 | 1098 ft | 217 kts | 351° |
| 2026-05-05 22:04 | 45.66079 | 8.72845 | 2188 ft | 221 kts | 9° |
| 2026-05-05 22:04 | 45.67551 | 8.73502 | 3136 ft | 228 kts | 25° |
| 2026-05-05 22:05 | 45.68760 | 8.74948 | 3839 ft | 227 kts | 57° |
| 2026-05-05 22:05 | 45.69648 | 8.76847 | 4622 ft | 235 kts | 56° |
| 2026-05-05 22:05 | 45.70597 | 8.78815 | 5290 ft | 244 kts | 56° |
| 2026-05-05 22:05 | 45.71527 | 8.80859 | 5976 ft | 256 kts | 65° |
| 2026-05-05 22:06 | 45.72095 | 8.83364 | 6536 ft | 270 kts | 78° |
| 2026-05-05 22:06 | 45.72425 | 8.86032 | 7307 ft | 276 kts | 84° |
| 2026-05-05 22:06 | 45.72629 | 8.88798 | 8147 ft | 281 kts | 87° |
| 2026-05-05 22:06 | 45.72771 | 8.91616 | 8996 ft | 286 kts | 88° |
| 2026-05-05 22:07 | 45.72893 | 8.94478 | 9845 ft | 290 kts | 88° |
| 2026-05-05 22:07 | 45.73022 | 8.97423 | 10416 ft | 304 kts | 88° |
| 2026-05-05 22:07 | 45.73167 | 9.00509 | 10732 ft | 324 kts | 88° |
| 2026-05-05 22:07 | 45.73338 | 9.03850 | 11023 ft | 342 kts | 87° |
| 2026-05-05 22:08 | 45.73528 | 9.07336 | 11333 ft | 360 kts | 87° |
| 2026-05-05 22:08 | 45.73735 | 9.10991 | 11630 ft | 375 kts | 87° |
| 2026-05-05 22:08 | 45.73948 | 9.14725 | 12120 ft | 384 kts | 87° |
| 2026-05-05 22:08 | 45.74166 | 9.18550 | 12730 ft | 390 kts | 87° |
| 2026-05-05 22:09 | 45.74385 | 9.22434 | 13350 ft | 395 kts | 87° |
| 2026-05-05 22:09 | 45.74605 | 9.26363 | 13939 ft | 399 kts | 87° |
| 2026-05-05 22:09 | 45.74825 | 9.30372 | 14503 ft | 404 kts | 87° |
| 2026-05-05 22:09 | 45.75044 | 9.34401 | 15047 ft | 409 kts | 88° |
| 2026-05-05 22:10 | 45.75264 | 9.38483 | 15623 ft | 413 kts | 88° |
| 2026-05-05 22:10 | 45.75484 | 9.42596 | 16180 ft | 417 kts | 88° |
| 2026-05-05 22:10 | 45.75707 | 9.46782 | 16660 ft | 421 kts | 88° |
| 2026-05-05 22:10 | 45.75929 | 9.50996 | 17216 ft | 426 kts | 88° |
| 2026-05-05 22:11 | 45.76076 | 9.53812 | 17600 ft | 429 kts | 88° |
| 2026-05-05 22:11 | 45.76299 | 9.58096 | 18137 ft | 434 kts | 88° |
| 2026-05-05 22:11 | 45.76523 | 9.62422 | 18628 ft | 438 kts | 88° |
| 2026-05-05 22:11 | 45.76745 | 9.66753 | 19098 ft | 441 kts | 89° |
| 2026-05-05 22:12 | 45.76968 | 9.71169 | 19573 ft | 444 kts | 89° |
| 2026-05-05 22:12 | 45.77194 | 9.75614 | 20029 ft | 448 kts | 89° |
| 2026-05-05 22:12 | 45.77424 | 9.80081 | 20477 ft | 451 kts | 89° |
| 2026-05-05 22:12 | 45.77649 | 9.84515 | 20908 ft | 454 kts | 89° |
| 2026-05-05 22:13 | 45.77877 | 9.89096 | 21335 ft | 458 kts | 89° |
| 2026-05-05 22:13 | 45.78101 | 9.93683 | 21789 ft | 461 kts | 90° |
| 2026-05-05 22:13 | 45.78322 | 9.98273 | 22156 ft | 465 kts | 90° |
| 2026-05-05 22:13 | 45.78545 | 10.02911 | 22568 ft | 467 kts | 90° |
| 2026-05-05 22:14 | 45.78765 | 10.07518 | 23003 ft | 470 kts | 90° |
| 2026-05-05 22:14 | 45.78987 | 10.12201 | 23374 ft | 473 kts | 90° |
| 2026-05-05 22:14 | 45.79208 | 10.16898 | 23736 ft | 476 kts | 90° |
| 2026-05-05 22:14 | 45.79431 | 10.21659 | 24073 ft | 479 kts | 90° |
| 2026-05-05 22:15 | 45.79652 | 10.26458 | 24349 ft | 483 kts | 90° |
| 2026-05-05 22:15 | 45.79867 | 10.31272 | 24649 ft | 486 kts | 90° |
| 2026-05-05 22:15 | 45.80113 | 10.36099 | 24952 ft | 490 kts | 88° |
| 2026-05-05 22:15 | 45.80720 | 10.40913 | 25203 ft | 497 kts | 78° |
| 2026-05-05 22:16 | 45.81890 | 10.45617 | 25481 ft | 503 kts | 67° |
| 2026-05-05 22:16 | 45.83531 | 10.50100 | 25752 ft | 507 kts | 62° |
| 2026-05-05 22:16 | 45.85321 | 10.54474 | 26071 ft | 510 kts | 60° |
| 2026-05-05 22:16 | 45.87188 | 10.58802 | 26360 ft | 511 kts | 59° |
| 2026-05-05 22:17 | 45.89097 | 10.63145 | 26613 ft | 514 kts | 59° |
| 2026-05-05 22:17 | 45.91017 | 10.67514 | 26877 ft | 517 kts | 59° |
| 2026-05-05 22:17 | 45.92926 | 10.71891 | 27187 ft | 518 kts | 59° |
| 2026-05-05 22:17 | 45.94809 | 10.76246 | 27473 ft | 519 kts | 59° |
| 2026-05-05 22:18 | 45.96711 | 10.80677 | 27688 ft | 522 kts | 59° |
| 2026-05-05 22:18 | 45.98614 | 10.85135 | 27903 ft | 524 kts | 59° |
| 2026-05-05 22:18 | 46.00515 | 10.89607 | 28314 ft | 522 kts | 59° |
| 2026-05-05 22:18 | 46.02409 | 10.94073 | 28698 ft | 522 kts | 59° |
| 2026-05-05 22:19 | 46.04294 | 10.98528 | 29001 ft | 522 kts | 59° |
| 2026-05-05 22:19 | 46.06184 | 11.02999 | 29370 ft | 522 kts | 59° |
| 2026-05-05 22:19 | 46.08039 | 11.07387 | 29770 ft | 520 kts | 59° |
| 2026-05-05 22:19 | 46.09923 | 11.11854 | 30125 ft | 519 kts | 59° |
| 2026-05-05 22:20 | 46.11798 | 11.16305 | 30430 ft | 519 kts | 59° |
| 2026-05-05 22:20 | 46.13671 | 11.20759 | 30691 ft | 520 kts | 59° |
| 2026-05-05 22:20 | 46.15548 | 11.25230 | 30994 ft | 519 kts | 59° |
| 2026-05-05 22:20 | 46.17396 | 11.29639 | 31331 ft | 518 kts | 59° |
| 2026-05-05 22:21 | 46.19250 | 11.34071 | 31626 ft | 518 kts | 59° |
| 2026-05-05 22:21 | 46.21113 | 11.38532 | 31906 ft | 518 kts | 59° |
| 2026-05-05 22:21 | 46.22972 | 11.42988 | 32196 ft | 517 kts | 59° |
| 2026-05-05 22:21 | 46.24812 | 11.47408 | 32441 ft | 517 kts | 59° |
| 2026-05-05 22:22 | 46.26664 | 11.51863 | 32696 ft | 517 kts | 59° |
| 2026-05-05 22:22 | 46.28516 | 11.56325 | 32910 ft | 518 kts | 59° |
| 2026-05-05 22:22 | 46.30370 | 11.60796 | 33193 ft | 518 kts | 59° |
| 2026-05-05 22:22 | 46.32218 | 11.65262 | 33495 ft | 518 kts | 59° |
| 2026-05-05 22:23 | 46.34059 | 11.69718 | 33748 ft | 518 kts | 59° |
| 2026-05-05 22:23 | 46.35923 | 11.74235 | 34007 ft | 519 kts | 59° |
| 2026-05-05 22:23 | 46.37746 | 11.78663 | 34274 ft | 517 kts | 59° |
| 2026-05-05 22:23 | 46.39599 | 11.83170 | 34618 ft | 514 kts | 59° |
| 2026-05-05 22:24 | 46.41419 | 11.87605 | 34923 ft | 512 kts | 59° |
| 2026-05-05 22:24 | 46.45077 | 11.96540 | 35005 ft | 518 kts | 59° |
| 2026-05-05 22:25 | 46.48764 | 12.05573 | 35004 ft | 525 kts | 59° |
| 2026-05-05 22:25 | 46.52478 | 12.14699 | 35049 ft | 530 kts | 59° |
| 2026-05-05 22:26 | 46.56182 | 12.23837 | 35022 ft | 512 kts | 59° |
| 2026-05-05 22:26 | 46.59782 | 12.32747 | 35033 ft | 509 kts | 59° |
| 2026-05-05 22:27 | 46.63370 | 12.41658 | 35034 ft | 509 kts | 60° |
| 2026-05-05 22:27 | 46.66916 | 12.50492 | 35020 ft | 508 kts | 59° |
| 2026-05-05 22:28 | 46.70130 | 12.59638 | 35007 ft | 506 kts | 72° |
| 2026-05-05 22:28 | 46.71612 | 12.69550 | 34996 ft | 502 kts | 83° |
| 2026-05-05 22:29 | 46.72605 | 12.79665 | 34989 ft | 502 kts | 85° |
| 2026-05-05 22:29 | 46.73506 | 12.89699 | 34980 ft | 501 kts | 85° |
| 2026-05-05 22:30 | 46.74416 | 12.99705 | 34984 ft | 500 kts | 85° |
| 2026-05-05 22:30 | 46.75337 | 13.09747 | 34977 ft | 500 kts | 84° |
| 2026-05-05 22:31 | 46.76268 | 13.19871 | 34975 ft | 499 kts | 84° |
| 2026-05-05 22:31 | 46.77172 | 13.29810 | 34977 ft | 498 kts | 84° |
| 2026-05-05 22:32 | 46.78074 | 13.39829 | 34970 ft | 498 kts | 84° |
| 2026-05-05 22:32 | 46.78973 | 13.49895 | 34965 ft | 498 kts | 84° |
| 2026-05-05 22:33 | 46.79857 | 13.59935 | 34952 ft | 498 kts | 84° |
| 2026-05-05 22:33 | 46.80731 | 13.69968 | 34950 ft | 498 kts | 84° |
| 2026-05-05 22:34 | 46.81595 | 13.79975 | 34942 ft | 498 kts | 84° |
| 2026-05-05 22:34 | 46.82449 | 13.89971 | 34934 ft | 498 kts | 84° |
| 2026-05-05 22:35 | 46.83293 | 13.99957 | 34937 ft | 497 kts | 84° |
| 2026-05-05 22:35 | 46.84138 | 14.10039 | 34929 ft | 497 kts | 84° |
| 2026-05-05 22:36 | 46.84968 | 14.20074 | 34931 ft | 497 kts | 84° |
| 2026-05-05 22:36 | 46.85783 | 14.30041 | 34936 ft | 497 kts | 84° |
| 2026-05-05 22:37 | 46.86594 | 14.40037 | 34932 ft | 495 kts | 84° |
| 2026-05-05 22:37 | 46.87394 | 14.50052 | 34936 ft | 495 kts | 84° |
| 2026-05-05 22:38 | 46.88185 | 14.60061 | 34930 ft | 494 kts | 84° |
| 2026-05-05 22:38 | 46.88959 | 14.69946 | 34918 ft | 493 kts | 84° |
| 2026-05-05 22:39 | 46.89731 | 14.79926 | 34914 ft | 492 kts | 84° |
| 2026-05-05 22:39 | 46.90491 | 14.89878 | 34913 ft | 491 kts | 84° |
| 2026-05-05 22:40 | 46.91244 | 14.99826 | 34898 ft | 490 kts | 84° |
| 2026-05-05 22:40 | 46.91985 | 15.09727 | 34890 ft | 489 kts | 84° |
| 2026-05-05 22:41 | 46.92711 | 15.19550 | 34888 ft | 489 kts | 84° |
| 2026-05-05 22:41 | 46.93431 | 15.29426 | 34885 ft | 486 kts | 84° |
| 2026-05-05 22:42 | 46.94140 | 15.39265 | 34883 ft | 484 kts | 84° |
| 2026-05-05 22:42 | 46.95096 | 15.48993 | 34886 ft | 482 kts | 78° |
| 2026-05-05 22:43 | 46.96571 | 15.58552 | 34884 ft | 481 kts | 76° |
| 2026-05-05 22:43 | 46.98159 | 15.68047 | 34886 ft | 480 kts | 76° |
| 2026-05-05 22:44 | 46.99721 | 15.77525 | 34885 ft | 479 kts | 76° |
| 2026-05-05 22:44 | 47.01248 | 15.86908 | 34887 ft | 478 kts | 77° |
| 2026-05-05 22:45 | 47.02787 | 15.96430 | 34887 ft | 478 kts | 77° |
| 2026-05-05 22:45 | 47.04307 | 16.05905 | 34890 ft | 477 kts | 77° |
| 2026-05-05 22:46 | 47.05820 | 16.15384 | 34886 ft | 476 kts | 77° |
| 2026-05-05 22:46 | 47.07306 | 16.24754 | 34882 ft | 475 kts | 77° |
| 2026-05-05 22:47 | 47.08798 | 16.34214 | 34881 ft | 474 kts | 77° |
| 2026-05-05 22:47 | 47.10277 | 16.43645 | 34878 ft | 473 kts | 77° |
| 2026-05-05 22:48 | 47.11745 | 16.53060 | 34878 ft | 472 kts | 77° |
| 2026-05-05 22:48 | 47.13199 | 16.62436 | 34879 ft | 470 kts | 77° |
| 2026-05-05 22:48 | 47.13923 | 16.67130 | 34654 ft | 468 kts | 77° |
| 2026-05-05 22:49 | 47.14630 | 16.71724 | 33955 ft | 470 kts | 77° |
| 2026-05-05 22:49 | 47.15352 | 16.76429 | 33107 ft | 472 kts | 77° |
| 2026-05-05 22:49 | 47.16075 | 16.81157 | 32218 ft | 475 kts | 77° |
| 2026-05-05 22:49 | 47.16800 | 16.85904 | 31324 ft | 478 kts | 77° |
| 2026-05-05 22:50 | 47.17528 | 16.90695 | 30434 ft | 482 kts | 77° |
| 2026-05-05 22:50 | 47.18261 | 16.95525 | 29468 ft | 485 kts | 77° |
| 2026-05-05 22:50 | 47.18996 | 17.00386 | 28464 ft | 487 kts | 77° |
| 2026-05-05 22:50 | 47.19728 | 17.05245 | 27515 ft | 488 kts | 78° |
| 2026-05-05 22:51 | 47.20458 | 17.10104 | 26567 ft | 488 kts | 78° |
| 2026-05-05 22:51 | 47.21186 | 17.14958 | 25586 ft | 489 kts | 78° |
| 2026-05-05 22:51 | 47.21916 | 17.19848 | 24660 ft | 489 kts | 78° |
| 2026-05-05 22:51 | 47.22635 | 17.24678 | 24009 ft | 482 kts | 79° |
| 2026-05-05 22:52 | 47.23344 | 17.29453 | 23505 ft | 474 kts | 79° |
| 2026-05-05 22:52 | 47.24041 | 17.34163 | 22898 ft | 468 kts | 79° |
| 2026-05-05 22:52 | 47.24726 | 17.38810 | 22324 ft | 464 kts | 79° |
| 2026-05-05 22:52 | 47.25405 | 17.43430 | 21740 ft | 460 kts | 79° |
| 2026-05-05 22:53 | 47.26078 | 17.48021 | 21170 ft | 456 kts | 79° |
| 2026-05-05 22:53 | 47.26744 | 17.52577 | 20614 ft | 453 kts | 79° |
| 2026-05-05 22:53 | 47.27400 | 17.57081 | 20070 ft | 450 kts | 79° |
| 2026-05-05 22:53 | 47.28053 | 17.61578 | 19527 ft | 446 kts | 79° |
| 2026-05-05 22:54 | 47.28700 | 17.66046 | 19007 ft | 443 kts | 79° |
| 2026-05-05 22:54 | 47.29330 | 17.70408 | 18495 ft | 440 kts | 79° |
| 2026-05-05 22:54 | 47.29965 | 17.74816 | 17955 ft | 437 kts | 79° |
| 2026-05-05 22:54 | 47.30593 | 17.79189 | 17372 ft | 434 kts | 79° |
| 2026-05-05 22:55 | 47.31212 | 17.83518 | 16805 ft | 430 kts | 79° |
| 2026-05-05 22:55 | 47.31828 | 17.87822 | 16248 ft | 427 kts | 79° |
| 2026-05-05 22:55 | 47.32428 | 17.92043 | 15695 ft | 422 kts | 80° |
| 2026-05-05 22:55 | 47.32779 | 17.96297 | 15187 ft | 416 kts | 90° |
| 2026-05-05 22:56 | 47.32528 | 18.00495 | 14729 ft | 409 kts | 103° |
| 2026-05-05 22:56 | 47.31903 | 18.04567 | 14287 ft | 405 kts | 106° |
| 2026-05-05 22:56 | 47.31200 | 18.08576 | 13831 ft | 402 kts | 107° |
| 2026-05-05 22:56 | 47.30481 | 18.12548 | 13354 ft | 399 kts | 107° |
| 2026-05-05 22:57 | 47.29758 | 18.16487 | 12861 ft | 396 kts | 108° |
| 2026-05-05 22:57 | 47.29048 | 18.20332 | 12370 ft | 392 kts | 108° |
| 2026-05-05 22:57 | 47.28329 | 18.24199 | 11903 ft | 390 kts | 108° |
| 2026-05-05 22:57 | 47.27614 | 18.28035 | 11428 ft | 387 kts | 108° |
| 2026-05-05 22:58 | 47.26901 | 18.31853 | 11042 ft | 384 kts | 109° |
| 2026-05-05 22:58 | 47.26194 | 18.35631 | 10927 ft | 382 kts | 109° |
| 2026-05-05 22:59 | 47.25893 | 18.37232 | 10918 ft | 381 kts | 109° |
| 2026-05-05 22:59 | 47.25184 | 18.41006 | 10917 ft | 381 kts | 109° |
| 2026-05-05 22:59 | 47.24476 | 18.44762 | 10924 ft | 381 kts | 109° |
| 2026-05-05 22:59 | 47.23775 | 18.48488 | 10917 ft | 371 kts | 109° |
| 2026-05-05 23:00 | 47.22468 | 18.55448 | 10560 ft | 333 kts | 110° |
| 2026-05-05 23:00 | 47.21897 | 18.58485 | 10267 ft | 312 kts | 111° |
| 2026-05-05 23:00 | 47.21518 | 18.60492 | 10017 ft | 301 kts | 112° |
| 2026-05-05 23:01 | 47.20960 | 18.63416 | 9682 ft | 296 kts | 112° |
| 2026-05-05 23:01 | 47.20223 | 18.67248 | 9256 ft | 292 kts | 112° |
| 2026-05-05 23:01 | 47.19851 | 18.69190 | 9054 ft | 290 kts | 113° |
| 2026-05-05 23:01 | 47.19307 | 18.72034 | 8739 ft | 289 kts | 112° |
| 2026-05-05 23:02 | 47.18962 | 18.74966 | 8432 ft | 295 kts | 101° |
| 2026-05-05 23:02 | 47.18973 | 18.81667 | 7992 ft | 295 kts | 95° |
| 2026-05-05 23:02 | 47.19010 | 18.84666 | 7940 ft | 294 kts | 96° |
| 2026-05-05 23:03 | 47.19043 | 18.87721 | 7822 ft | 294 kts | 96° |
| 2026-05-05 23:03 | 47.19072 | 18.90678 | 7713 ft | 294 kts | 96° |
| 2026-05-05 23:03 | 47.19099 | 18.93682 | 7583 ft | 293 kts | 96° |
| 2026-05-05 23:03 | 47.19125 | 18.96681 | 7460 ft | 292 kts | 96° |
| 2026-05-05 23:04 | 47.19300 | 18.99671 | 7316 ft | 298 kts | 83° |
| 2026-05-05 23:04 | 47.20138 | 19.02472 | 6985 ft | 307 kts | 57° |
| 2026-05-05 23:04 | 47.21623 | 19.04764 | 6636 ft | 309 kts | 46° |
| 2026-05-05 23:04 | 47.23231 | 19.06871 | 6276 ft | 308 kts | 45° |
| 2026-05-05 23:05 | 47.24835 | 19.08952 | 5903 ft | 306 kts | 45° |
| 2026-05-05 23:05 | 47.26426 | 19.11039 | 5525 ft | 305 kts | 44° |
| 2026-05-05 23:05 | 47.27980 | 19.13093 | 5215 ft | 302 kts | 44° |
| 2026-05-05 23:05 | 47.29526 | 19.15147 | 4951 ft | 297 kts | 44° |
| 2026-05-05 23:06 | 47.31039 | 19.17172 | 4699 ft | 291 kts | 46° |
| 2026-05-05 23:06 | 47.32241 | 19.19498 | 4425 ft | 281 kts | 71° |
| 2026-05-05 23:06 | 47.32546 | 19.22222 | 4170 ft | 262 kts | 103° |
| 2026-05-05 23:06 | 47.31961 | 19.24615 | 4006 ft | 238 kts | 131° |
| 2026-05-05 23:07 | 47.30949 | 19.26460 | 3999 ft | 229 kts | 139° |
| 2026-05-05 23:07 | 47.29865 | 19.28188 | 4001 ft | 230 kts | 140° |
| 2026-05-05 23:07 | 47.28781 | 19.29898 | 4001 ft | 231 kts | 140° |
| 2026-05-05 23:07 | 47.27686 | 19.31637 | 4006 ft | 231 kts | 139° |
| 2026-05-05 23:08 | 47.26599 | 19.33375 | 4003 ft | 231 kts | 139° |
| 2026-05-05 23:08 | 47.25511 | 19.35119 | 3999 ft | 231 kts | 139° |
| 2026-05-05 23:08 | 47.24456 | 19.36903 | 3991 ft | 230 kts | 131° |
| 2026-05-05 23:08 | 47.23800 | 19.39002 | 4005 ft | 224 kts | 108° |
| 2026-05-05 23:09 | 47.23824 | 19.41264 | 4008 ft | 223 kts | 80° |
| 2026-05-05 23:09 | 47.24519 | 19.43259 | 3996 ft | 219 kts | 52° |
| 2026-05-05 23:09 | 47.25579 | 19.44838 | 4001 ft | 219 kts | 44° |
| 2026-05-05 23:09 | 47.26715 | 19.46337 | 4002 ft | 218 kts | 42° |
| 2026-05-05 23:10 | 47.27929 | 19.47589 | 3954 ft | 210 kts | 23° |
| 2026-05-05 23:10 | 47.29313 | 19.48011 | 3890 ft | 199 kts | 346° |
| 2026-05-05 23:10 | 47.30597 | 19.47393 | 3762 ft | 193 kts | 327° |
| 2026-05-05 23:10 | 47.31708 | 19.46361 | 3492 ft | 184 kts | 311° |
| 2026-05-05 23:11 | 47.32563 | 19.45065 | 3271 ft | 170 kts | 303° |
| 2026-05-05 23:11 | 47.33345 | 19.43781 | 3038 ft | 166 kts | 303° |
| 2026-05-05 23:11 | 47.34128 | 19.42526 | 2809 ft | 166 kts | 304° |
| 2026-05-05 23:11 | 47.34908 | 19.41278 | 2586 ft | 164 kts | 304° |
| 2026-05-05 23:12 | 47.35677 | 19.40042 | 2371 ft | 161 kts | 304° |
| 2026-05-05 23:12 | 47.36407 | 19.38869 | 2159 ft | 154 kts | 304° |
| 2026-05-05 23:12 | 47.37112 | 19.37735 | 1959 ft | 149 kts | 304° |
| 2026-05-05 23:12 | 47.37810 | 19.36609 | 1763 ft | 147 kts | 303° |
| 2026-05-05 23:13 | 47.38501 | 19.35507 | 1491 ft | 146 kts | 305° |
| 2026-05-05 23:13 | 47.39183 | 19.34419 | 1237 ft | 144 kts | 305° |
| 2026-05-05 23:13 | 47.39845 | 19.33292 | 1085 ft | 147 kts | 309° |
| 2026-05-05 23:13 | 47.40551 | 19.32204 | 898 ft | 148 kts | 310° |
| 2026-05-05 23:14 | 47.41229 | 19.31071 | 797 ft | 147 kts | 310° |
| 2026-05-05 23:14 | 47.41950 | 19.29968 | 624 ft | 151 kts | 307° |
| 2026-05-05 23:14 | 47.42645 | 19.28790 | 469 ft | 150 kts | 309° |
| 2026-05-05 23:14 | 47.43301 | 19.27739 | 466 ft | 119 kts | 314° |
| 2026-05-05 23:15 | 47.43743 | 19.27048 | 470 ft | 72 kts | 312° |
| 2026-05-05 23:15 | 47.43982 | 19.26652 | 472 ft | 39 kts | 311° |
| 2026-05-05 23:15 | 47.44056 | 19.26424 | 478 ft | 18 kts | 267° |
| 2026-05-05 23:15 | 47.44000 | 19.26280 | 466 ft | 16 kts | 232° |
| 2026-05-05 23:16 | 47.43946 | 19.26215 | 465 ft | 14 kts | 221° |
| 2026-05-05 23:16 | 47.43880 | 19.26111 | 464 ft | 14 kts | 226° |
| 2026-05-05 23:16 | 47.43815 | 19.26019 | 464 ft | 12 kts | 220° |
| 2026-05-05 23:16 | 47.43705 | 19.25876 | 463 ft | 19 kts | 221° |
| 2026-05-05 23:17 | 47.43632 | 19.25780 | 463 ft | 22 kts | 220° |
| 2026-05-05 23:17 | 47.43511 | 19.25614 | 463 ft | 25 kts | 220° |
| 2026-05-05 23:17 | 47.43372 | 19.25426 | 463 ft | 29 kts | 221° |
| 2026-05-05 23:17 | 47.43249 | 19.25242 | 463 ft | 19 kts | 248° |
| 2026-05-05 23:18 | 47.43289 | 19.25045 | 463 ft | 23 kts | 307° |
| 2026-05-05 23:18 | 47.43406 | 19.24846 | 463 ft | 28 kts | 314° |
| 2026-05-05 23:18 | 47.43534 | 19.24638 | 463 ft | 27 kts | 313° |
| 2026-05-05 23:18 | 47.43659 | 19.24444 | 463 ft | 26 kts | 313° |
| 2026-05-05 23:19 | 47.43775 | 19.24252 | 463 ft | 24 kts | 312° |
| 2026-05-05 23:19 | 47.43878 | 19.24077 | 463 ft | 22 kts | 306° |
| 2026-05-05 23:19 | 47.43897 | 19.23916 | 463 ft | 13 kts | 256° |
| 2026-05-05 23:19 | 47.43846 | 19.23822 | 462 ft | 11 kts | 218° |
| 2026-05-05 23:20 | 47.43796 | 19.23748 | 463 ft | 9 kts | 242° |
| 2026-05-05 23:20 | 47.43771 | 19.23610 | 463 ft | 20 kts | 261° |
| 2026-05-05 23:20 | 47.43711 | 19.23050 | 463 ft | 26 kts | 261° |
| 2026-05-05 23:21 | 47.43726 | 19.22855 | 463 ft | 12 kts | 315° |
| 2026-05-05 23:21 | 47.43805 | 19.22767 | 463 ft | 18 kts | 323° |
| 2026-05-05 23:21 | 47.43923 | 19.22655 | 463 ft | 16 kts | 349° |
| 2026-05-05 23:21 | 47.44027 | 19.22676 | 463 ft | 16 kts | 4° |
| 2026-05-05 23:22 | 47.44115 | 19.22635 | 463 ft | 11 kts | 332° |
| 2026-05-05 23:22 | 47.44170 | 19.22593 | 463 ft | 7 kts | 330° |
| 2026-05-05 23:22 | 47.44219 | 19.22553 | 463 ft | 5 kts | 331° |
| 2026-05-05 23:22 | 47.44250 | 19.22510 | 463 ft | 6 kts | 305° |
| 2026-05-05 23:23 | 47.44271 | 19.22445 | 463 ft | 0 kts | 292° |
| 2026-05-05 23:23 | 47.44274 | 19.22427 | 463 ft | 3 kts | 289° |
| 2026-05-05 23:23 | 47.44275 | 19.22422 | 463 ft | 0 kts | 288° |